Corpus Christi, TX (78418)

11:04 AM CST on March 06, 2015 (GMT -0600)
Flour Bluff | Change Station
CLOSE
Current Station
Personal Weather Station
Location: Corpus Christi, TX
Elevation: 16 ft
Nearby Weather Stations

Elev 16 ft 27.65 °N, 97.30 °W | Updated 8 seconds ago

Overcast
Overcast
44.2 °F
Feels Like 39 °F
N
10.0
Wind Variable Wind from NNW
Gusts 15.0 mph

Today
High -- | Low -- °F
--% Chance of Precip.
Yesterday
High -- | Low -- °F
Precip. -- in
6:48 AM 6:32 PM
Full, 99% visible
Pressure 30.61 in
Visibility 10.0 miles
Clouds Overcast 9000 ft
Windchill 39 °F
Dew Point 30 °F
Humidity 56%
Rainfall in
Snow Depth Not available.
UV 3.1 out of 12
Pollen 9.10 out of 12
Air Quality Not available.
Flu Activity Not available.
METAR KNGP 061656Z 04013KT 10SM OVC090 07/M02 A3061 RMK AO2 SLP366 T00721022

More Conditions Fewer Conditions

Pressure 30.61 in
Visibility 10.0 miles
Clouds Overcast 9000 ft
Windchill 39 °F
Dew Point 30 °F
Humidity 56%
Rainfall in
Snow Depth Not available.
UV 3.1 out of 12
Pollen 9.10 out of 12
Air Quality Not available.
Flu Activity Not available.
METAR KNGP 061656Z 04013KT 10SM OVC090 07/M02 A3061 RMK AO2 SLP366 T00721022

More Conditions Fewer Conditions

10-Day Weather Forecast

Almanac

Astronomy

Mar. 06, 2015 Rise Set
Actual Time
Civil Twilight
Nautical Twilight
Astronomical Twilight
Moon
Length of Visible Light
Length of Day
Tomorrow will be .
, % of the Moon is Illuminated

Today's Extremes

State Highs State Lows

Community

WunderPhotos

Upload Photos

1,803,337 photos uploaded!

WunderBlogs® & News

Nearby

Air Quality

  Air Quality AQ Index Pollutant
Not available.

Snow Depth

Station Depth Elevation

Earthquake Activity

City Distance Mag. Time & Date
Minimum magnitude displayed is 2.5.

Coastal Water Temperatures

Place Temperature

Nearby Weather Stations